createdAt,value
2022-10-20T00:00:54.611Z,20.98
2022-10-20T00:03:22.186Z,18.02
2022-10-20T00:05:49.529Z,26.05
2022-10-20T00:08:17.262Z,19.33
2022-10-20T00:13:26.156Z,22.08
2022-10-20T00:15:54.696Z,19.73
2022-10-20T00:18:23.506Z,23.55
2022-10-20T00:20:50.983Z,20.75
2022-10-20T00:23:19.028Z,19.42
2022-10-20T00:25:46.699Z,19.00
2022-10-20T00:28:14.220Z,22.70
2022-10-20T00:30:42.269Z,22.70
2022-10-20T00:33:09.731Z,17.10
2022-10-20T00:35:39.426Z,21.30
2022-10-20T00:38:07.076Z,20.13
2022-10-20T00:40:34.480Z,26.70
2022-10-20T00:43:02.159Z,23.05
2022-10-20T00:45:29.568Z,24.35
2022-10-20T00:47:58.861Z,26.48
2022-10-20T00:50:26.295Z,23.10
2022-10-20T00:52:54.571Z,20.00
2022-10-20T00:55:25.869Z,23.50
2022-10-20T00:57:54.776Z,20.15
2022-10-20T01:00:22.732Z,23.75
2022-10-20T01:02:51.553Z,27.05
2022-10-20T01:05:19.293Z,20.88
2022-10-20T01:07:47.040Z,22.52
2022-10-20T01:10:15.275Z,26.15
2022-10-20T01:12:51.133Z,25.10
2022-10-20T01:15:21.765Z,22.13
2022-10-20T01:18:07.969Z,22.95
2022-10-20T01:21:05.029Z,28.48
2022-10-20T01:23:32.657Z,21.38
2022-10-20T01:26:18.887Z,25.67
2022-10-20T01:28:49.389Z,21.58
2022-10-20T01:31:25.160Z,24.27
2022-10-20T01:33:58.342Z,22.17
2022-10-20T01:36:32.050Z,22.63
2022-10-20T01:38:59.485Z,24.02
2022-10-20T01:41:40.601Z,22.35
2022-10-20T01:44:10.900Z,29.20
2022-10-20T01:46:40.302Z,24.77
2022-10-20T01:49:07.938Z,22.90
2022-10-20T01:51:35.490Z,25.08
2022-10-20T01:54:02.915Z,22.90
2022-10-20T01:56:40.102Z,23.10
2022-10-20T01:59:17.481Z,22.27
2022-10-20T02:01:59.960Z,23.80
2022-10-20T02:04:50.564Z,25.98
2022-10-20T02:07:23.011Z,25.35
2022-10-20T02:09:52.454Z,27.90
2022-10-20T02:12:28.912Z,28.60
2022-10-20T02:14:56.605Z,25.15
2022-10-20T02:17:24.307Z,25.17
2022-10-20T02:19:53.252Z,20.25
2022-10-20T02:22:21.801Z,22.27
2022-10-20T02:24:49.657Z,24.13
2022-10-20T02:27:19.214Z,22.65
2022-10-20T02:29:54.465Z,22.30
2022-10-20T02:32:22.402Z,24.45
2022-10-20T02:34:49.760Z,23.15
2022-10-20T02:39:44.914Z,22.58
2022-10-20T02:42:12.916Z,25.20
2022-10-20T02:44:40.506Z,20.13
2022-10-20T02:47:08.049Z,20.88
2022-10-20T02:49:35.517Z,23.65
2022-10-20T02:52:02.949Z,25.10
2022-10-20T02:54:30.319Z,23.33
2022-10-20T02:56:57.877Z,27.98
2022-10-20T02:59:25.214Z,19.77
2022-10-20T03:01:52.868Z,19.63
2022-10-20T03:04:20.546Z,22.45
2022-10-20T03:06:47.924Z,20.58
2022-10-20T03:09:15.561Z,23.45
2022-10-20T03:11:43.315Z,29.40
2022-10-20T03:14:11.814Z,21.33
2022-10-20T03:16:40.058Z,25.13
2022-10-20T03:19:11.348Z,20.02
2022-10-20T03:21:39.131Z,22.45
2022-10-20T03:24:06.626Z,20.75
2022-10-20T03:26:34.492Z,18.15
2022-10-20T03:29:02.130Z,21.05
2022-10-20T03:31:29.590Z,20.88
2022-10-20T03:33:56.967Z,16.67
2022-10-20T03:36:24.601Z,16.02
2022-10-20T03:38:53.471Z,19.83
2022-10-20T03:41:21.105Z,16.05
2022-10-20T03:43:48.490Z,17.65
2022-10-20T03:46:16.111Z,20.63
2022-10-20T03:48:43.924Z,17.77
2022-10-20T03:51:12.849Z,17.73
2022-10-20T03:53:40.546Z,15.48
2022-10-20T03:56:08.618Z,24.52
2022-10-20T03:58:36.013Z,18.80
2022-10-20T04:01:03.640Z,18.42
2022-10-20T04:03:31.107Z,21.05
2022-10-20T04:05:58.827Z,17.70
2022-10-20T04:08:26.355Z,19.50
2022-10-20T04:10:53.771Z,19.02
2022-10-20T04:13:21.485Z,18.25
2022-10-20T04:15:48.824Z,18.58
2022-10-20T04:18:16.161Z,19.20
2022-10-20T04:20:44.727Z,19.38
2022-10-20T04:23:12.663Z,17.30
2022-10-20T04:25:41.068Z,25.25
2022-10-20T04:28:09.264Z,15.70
2022-10-20T04:30:36.988Z,19.92
2022-10-20T04:33:04.790Z,16.02
2022-10-20T04:35:32.278Z,15.65
2022-10-20T04:37:59.645Z,18.40
2022-10-20T04:40:27.286Z,18.50
2022-10-20T04:42:55.004Z,19.60
2022-10-20T04:45:22.734Z,20.45
2022-10-20T04:47:50.456Z,16.05
2022-10-20T04:50:18.018Z,16.55
2022-10-20T04:52:45.417Z,16.60
2022-10-20T04:55:12.920Z,16.77
2022-10-20T04:57:40.590Z,17.88
2022-10-20T05:00:08.484Z,15.10
2022-10-20T05:02:36.205Z,27.02
2022-10-20T05:05:05.211Z,22.75
2022-10-20T05:07:32.623Z,15.57
2022-10-20T05:09:59.945Z,21.55
2022-10-20T05:12:28.927Z,22.60
2022-10-20T05:14:56.292Z,24.80
2022-10-20T05:17:23.677Z,16.50
2022-10-20T05:19:52.797Z,13.18
2022-10-20T05:22:20.158Z,18.25
2022-10-20T05:24:47.674Z,17.30
2022-10-20T05:27:15.169Z,17.55
2022-10-20T05:29:42.849Z,19.83
2022-10-20T05:32:12.053Z,16.25
2022-10-20T05:34:39.528Z,16.98
2022-10-20T05:37:07.278Z,12.23
2022-10-20T05:39:34.969Z,17.02
2022-10-20T05:42:02.378Z,20.67
2022-10-20T05:44:29.877Z,13.98
2022-10-20T05:46:57.383Z,19.23
2022-10-20T05:49:25.273Z,19.40
2022-10-20T05:51:52.597Z,15.63
2022-10-20T05:54:20.356Z,18.23
2022-10-20T05:56:48.109Z,18.10
2022-10-20T05:59:15.719Z,18.85
2022-10-20T06:01:49.507Z,12.52
2022-10-20T06:04:18.717Z,15.27
2022-10-20T06:06:46.231Z,16.13
2022-10-20T06:09:13.902Z,17.52
2022-10-20T06:11:41.806Z,17.25
2022-10-20T06:14:10.174Z,16.15
2022-10-20T06:16:37.869Z,15.88
2022-10-20T06:19:06.938Z,18.85
2022-10-20T06:21:35.199Z,15.68
2022-10-20T06:24:04.958Z,21.85
2022-10-20T06:26:34.253Z,16.80
2022-10-20T06:29:04.670Z,13.57
2022-10-20T06:31:34.054Z,13.13
2022-10-20T06:34:02.005Z,14.40
2022-10-20T06:36:29.672Z,23.67
2022-10-20T06:38:58.116Z,18.60
2022-10-20T06:41:26.659Z,17.40
2022-10-20T06:44:00.762Z,16.48
2022-10-20T06:46:29.630Z,16.80
2022-10-20T06:48:59.107Z,12.23
2022-10-20T06:51:26.839Z,18.60
2022-10-20T06:53:54.587Z,20.45
2022-10-20T06:56:23.817Z,16.20
2022-10-20T06:58:52.146Z,13.50
2022-10-20T07:01:21.222Z,16.42
2022-10-20T07:03:49.224Z,13.73
2022-10-20T07:06:28.538Z,12.45
2022-10-20T07:08:59.761Z,13.77
2022-10-20T07:11:30.162Z,11.95
2022-10-20T07:14:02.457Z,15.40
2022-10-20T07:16:31.157Z,12.23
2022-10-20T07:18:59.123Z,15.70
2022-10-20T07:21:32.358Z,13.18
2022-10-20T07:24:04.083Z,14.20
2022-10-20T07:26:33.263Z,17.20
2022-10-20T07:29:01.754Z,13.25
2022-10-20T07:31:29.412Z,14.35
2022-10-20T07:34:07.082Z,9.75
2022-10-20T07:36:43.166Z,8.43
2022-10-20T07:39:11.784Z,12.60
2022-10-20T07:41:39.897Z,12.10
2022-10-20T07:44:08.403Z,12.75
2022-10-20T07:46:36.654Z,14.13
2022-10-20T07:51:53.274Z,11.25
2022-10-20T07:54:20.907Z,15.32
2022-10-20T07:56:49.543Z,9.95
2022-10-20T07:59:16.960Z,9.02
2022-10-20T08:01:44.561Z,9.48
2022-10-20T08:04:12.334Z,10.52
2022-10-20T08:06:39.813Z,12.00
2022-10-20T08:09:07.763Z,9.60
2022-10-20T08:11:35.765Z,15.07
2022-10-20T08:14:03.204Z,11.68
2022-10-20T08:16:31.290Z,6.95
2022-10-20T08:19:09.559Z,10.38
2022-10-20T08:21:36.939Z,9.18
2022-10-20T08:24:04.623Z,11.57
2022-10-20T08:26:31.966Z,15.27
2022-10-20T08:28:59.683Z,10.18
2022-10-20T08:31:27.048Z,9.35
2022-10-20T08:33:54.559Z,10.98
2022-10-20T08:36:22.339Z,12.82
2022-10-20T08:38:50.027Z,8.43
2022-10-20T08:41:20.841Z,9.63
2022-10-20T08:43:49.964Z,10.40
2022-10-20T08:48:47.469Z,9.27
2022-10-20T08:51:22.565Z,11.50
2022-10-20T08:53:51.966Z,7.82
2022-10-20T08:56:21.240Z,14.68
2022-10-20T08:58:48.617Z,23.60
2022-10-20T09:01:21.142Z,9.85
2022-10-20T09:03:59.720Z,10.27
2022-10-20T09:06:27.173Z,12.00
2022-10-20T09:08:56.107Z,12.18
2022-10-20T09:11:30.035Z,9.13
2022-10-20T09:13:57.421Z,11.02
2022-10-20T09:16:41.625Z,8.57
2022-10-20T09:19:19.753Z,11.70
2022-10-20T09:21:50.853Z,9.75
2022-10-20T09:24:18.512Z,7.90
2022-10-20T09:26:59.036Z,7.10
2022-10-20T09:29:37.872Z,8.88
2022-10-20T09:32:44.854Z,13.32
2022-10-20T09:35:19.282Z,13.63
2022-10-20T09:37:51.350Z,9.43
2022-10-20T09:40:19.657Z,11.73
2022-10-20T09:43:16.205Z,8.43
2022-10-20T09:46:09.856Z,7.47
2022-10-20T09:48:43.861Z,7.63
2022-10-20T09:51:14.871Z,10.43
2022-10-20T09:54:02.476Z,14.50
2022-10-20T09:56:40.486Z,9.73
2022-10-20T09:59:33.058Z,9.38
2022-10-20T10:02:02.401Z,8.30
2022-10-20T10:04:36.309Z,9.25
2022-10-20T10:07:05.285Z,10.05
2022-10-20T10:09:35.330Z,11.13
2022-10-20T10:12:13.409Z,12.20
2022-10-20T10:14:51.711Z,7.32
2022-10-20T10:17:39.430Z,6.60
2022-10-20T10:20:27.925Z,10.18
2022-10-20T10:23:08.535Z,9.77
2022-10-20T10:25:36.111Z,12.02
2022-10-20T10:28:20.747Z,9.35
2022-10-20T10:33:26.524Z,6.93
2022-10-20T10:35:53.963Z,6.63
2022-10-20T10:38:21.669Z,8.52
2022-10-20T10:41:07.795Z,7.00
2022-10-20T10:43:43.786Z,13.25
2022-10-20T10:46:13.748Z,13.10
2022-10-20T10:48:53.133Z,12.07
2022-10-20T10:51:39.373Z,10.93
2022-10-20T10:54:11.680Z,7.43
2022-10-20T10:56:48.449Z,12.55
2022-10-20T10:59:23.633Z,10.02
2022-10-20T11:01:50.985Z,9.63
2022-10-20T11:04:39.954Z,9.63
2022-10-20T11:07:14.110Z,8.73
2022-10-20T11:09:53.900Z,8.93
2022-10-20T11:12:29.442Z,7.13
2022-10-20T11:15:05.954Z,11.27
2022-10-20T11:17:39.553Z,12.43
2022-10-20T11:20:27.632Z,12.05
2022-10-20T11:23:13.480Z,6.22
2022-10-20T11:25:53.253Z,8.48
2022-10-20T11:28:32.091Z,6.97
2022-10-20T11:31:00.451Z,9.38
2022-10-20T11:33:30.144Z,10.10
2022-10-20T11:35:57.591Z,14.13
2022-10-20T11:38:31.908Z,9.98
2022-10-20T11:41:19.399Z,8.32
2022-10-20T11:44:06.961Z,10.40
2022-10-20T11:46:34.517Z,11.85
2022-10-20T11:49:04.127Z,6.80
2022-10-20T11:51:31.719Z,8.00
2022-10-20T11:54:04.976Z,13.75
2022-10-20T11:57:04.957Z,21.20
2022-10-20T11:59:38.645Z,9.93
2022-10-20T12:02:15.312Z,8.73
2022-10-20T12:04:46.033Z,6.75
2022-10-20T12:07:22.253Z,8.52
2022-10-20T12:10:08.153Z,8.38
2022-10-20T12:12:41.649Z,14.43
2022-10-20T12:15:25.719Z,6.50
2022-10-20T12:17:54.545Z,7.85
2022-10-20T12:20:21.916Z,7.68
2022-10-20T12:22:50.943Z,9.70
2022-10-20T12:25:20.999Z,5.38
2022-10-20T12:27:48.557Z,7.57
2022-10-20T12:30:19.123Z,7.00
2022-10-20T12:32:46.648Z,11.68
2022-10-20T12:35:14.264Z,9.73
2022-10-20T12:37:44.977Z,8.05
2022-10-20T12:40:14.429Z,9.57
2022-10-20T12:42:47.656Z,11.50
2022-10-20T12:45:21.660Z,6.97
2022-10-20T12:47:51.459Z,9.63
2022-10-20T12:50:24.806Z,14.43
2022-10-20T12:52:52.398Z,8.85
2022-10-20T12:55:39.534Z,7.55
2022-10-20T12:58:18.445Z,6.97
2022-10-20T13:00:52.071Z,8.25
2022-10-20T13:03:38.257Z,6.60
2022-10-20T13:06:23.909Z,7.05
2022-10-20T13:09:07.618Z,5.80
2022-10-20T13:11:38.356Z,11.40
2022-10-20T13:14:17.515Z,7.70
2022-10-20T13:16:50.694Z,5.25
2022-10-20T13:19:21.504Z,8.35
2022-10-20T13:21:49.860Z,7.55
2022-10-20T13:24:21.026Z,6.32
2022-10-20T13:26:49.042Z,8.38
2022-10-20T13:29:21.641Z,8.35
2022-10-20T13:34:57.331Z,6.18
2022-10-20T13:37:51.739Z,11.90
2022-10-20T13:40:35.700Z,11.57
2022-10-20T13:43:13.137Z,5.30
2022-10-20T13:45:50.257Z,6.13
2022-10-20T13:48:23.609Z,10.07
2022-10-20T13:50:55.460Z,14.00
2022-10-20T13:53:28.537Z,8.57
2022-10-20T13:56:01.726Z,8.70
2022-10-20T13:58:29.353Z,6.55
2022-10-20T14:01:19.850Z,12.82
2022-10-20T14:03:48.117Z,7.53
2022-10-20T14:06:38.249Z,10.10
2022-10-20T14:09:19.392Z,7.25
2022-10-20T14:12:13.105Z,8.75
2022-10-20T14:14:43.779Z,11.95
2022-10-20T14:17:18.585Z,12.88
2022-10-20T14:19:46.968Z,4.53
2022-10-20T14:22:19.042Z,7.53
2022-10-20T14:24:50.406Z,9.70
2022-10-20T14:27:29.048Z,5.25
2022-10-20T14:29:57.340Z,9.95
2022-10-20T14:32:29.311Z,5.45
2022-10-20T14:35:01.133Z,6.78
2022-10-20T14:37:49.117Z,5.30
2022-10-20T14:40:21.838Z,7.55
2022-10-20T14:42:49.487Z,8.35
2022-10-20T14:45:24.653Z,6.60
2022-10-20T14:47:52.380Z,12.25
2022-10-20T14:50:27.832Z,5.20
2022-10-20T14:52:55.635Z,7.97
2022-10-20T14:55:32.974Z,10.40
2022-10-20T14:58:00.704Z,4.43
2022-10-20T15:00:31.378Z,6.20
2022-10-20T15:03:01.731Z,6.53
2022-10-20T15:05:32.639Z,7.43
2022-10-20T15:08:07.783Z,8.15
2022-10-20T15:10:35.607Z,8.60
2022-10-20T15:13:03.431Z,7.07
2022-10-20T15:15:40.136Z,8.80
2022-10-20T15:18:12.761Z,8.02
2022-10-20T15:20:41.704Z,9.75
2022-10-20T15:23:10.646Z,15.20
2022-10-20T15:25:58.658Z,14.13
2022-10-20T15:28:37.533Z,13.60
2022-10-20T15:31:25.851Z,8.32
2022-10-20T15:33:55.796Z,9.60
2022-10-20T15:36:33.408Z,13.38
2022-10-20T15:39:01.340Z,20.92
2022-10-20T15:41:34.236Z,8.75
2022-10-20T15:44:22.609Z,8.65
2022-10-20T15:46:54.613Z,7.15
2022-10-20T15:49:22.419Z,10.30
2022-10-20T15:51:51.483Z,10.10
2022-10-20T15:54:20.444Z,7.65
2022-10-20T15:56:47.750Z,8.48
2022-10-20T15:59:15.226Z,12.65
2022-10-20T16:01:42.567Z,17.77
2022-10-20T16:04:22.521Z,14.50
2022-10-20T16:06:53.103Z,9.20
2022-10-20T16:09:24.114Z,19.00
2022-10-20T16:11:51.509Z,13.13
2022-10-20T16:14:18.889Z,8.82
2022-10-20T16:16:46.380Z,16.27
2022-10-20T16:19:14.028Z,10.23
2022-10-20T16:21:41.676Z,8.52
2022-10-20T16:24:09.464Z,7.93
2022-10-20T16:26:36.930Z,11.98
2022-10-20T16:29:04.381Z,7.65
2022-10-20T16:31:31.795Z,6.88
2022-10-20T16:34:02.523Z,10.13
2022-10-20T16:36:30.248Z,7.13
2022-10-20T16:38:58.259Z,8.32
2022-10-20T16:41:25.897Z,9.10
2022-10-20T16:43:56.456Z,8.93
2022-10-20T16:46:26.521Z,10.05
2022-10-20T16:48:57.556Z,5.95
2022-10-20T16:51:25.634Z,10.38
2022-10-20T16:53:57.243Z,13.70
2022-10-20T16:56:26.414Z,7.85
2022-10-20T16:58:53.680Z,7.72
2022-10-20T17:01:22.384Z,10.27
2022-10-20T17:03:51.346Z,9.55
2022-10-20T17:06:21.065Z,7.00
2022-10-20T17:08:49.029Z,10.50
2022-10-20T17:11:18.541Z,9.57
2022-10-20T17:13:46.245Z,11.63
2022-10-20T17:16:15.134Z,8.18
2022-10-20T17:18:43.230Z,11.48
2022-10-20T17:21:11.318Z,7.80
2022-10-20T17:23:41.820Z,11.50
2022-10-20T17:26:12.441Z,10.75
2022-10-20T17:28:40.211Z,9.85
2022-10-20T17:31:08.703Z,15.50
2022-10-20T17:33:36.230Z,12.20
2022-10-20T17:36:03.991Z,10.65
2022-10-20T17:38:32.189Z,10.68
2022-10-20T17:41:06.147Z,8.57
2022-10-20T17:43:34.009Z,11.30
2022-10-20T17:46:03.125Z,9.25
2022-10-20T17:48:31.191Z,10.30
2022-10-20T17:51:02.855Z,11.10
2022-10-20T17:53:32.696Z,10.63
2022-10-20T17:56:07.486Z,7.70
2022-10-20T17:58:35.191Z,11.40
2022-10-20T18:01:17.388Z,13.45
2022-10-20T18:03:45.751Z,9.40
2022-10-20T18:06:20.306Z,14.52
2022-10-20T18:08:48.304Z,12.10
2022-10-20T18:11:20.193Z,12.02
2022-10-20T18:13:48.013Z,10.13
2022-10-20T18:16:19.303Z,11.55
2022-10-20T18:18:47.215Z,7.90
2022-10-20T18:21:15.887Z,14.98
2022-10-20T18:23:45.926Z,8.30
2022-10-20T18:26:17.854Z,11.23
2022-10-20T18:28:48.278Z,8.00
2022-10-20T18:31:22.374Z,11.15
2022-10-20T18:33:51.320Z,10.15
2022-10-20T18:36:19.797Z,16.45
2022-10-20T18:38:48.425Z,19.58
2022-10-20T18:41:19.991Z,11.75
2022-10-20T18:43:48.263Z,7.35
2022-10-20T18:46:16.058Z,13.10
2022-10-20T18:48:43.899Z,10.07
2022-10-20T18:51:11.907Z,13.77
2022-10-20T18:56:18.697Z,12.48
2022-10-20T18:58:50.975Z,14.15
2022-10-20T19:01:19.471Z,13.15
2022-10-20T19:03:47.764Z,9.25
2022-10-20T19:06:16.492Z,8.68
2022-10-20T19:08:44.073Z,10.07
2022-10-20T19:11:13.400Z,12.52
2022-10-20T19:13:41.148Z,17.50
2022-10-20T19:16:10.060Z,17.70
2022-10-20T19:18:39.529Z,10.85
2022-10-20T19:21:07.515Z,10.57
2022-10-20T19:23:36.489Z,9.95
2022-10-20T19:26:05.256Z,11.60
2022-10-20T19:28:33.537Z,13.77
2022-10-20T19:31:01.383Z,9.20
2022-10-20T19:33:29.094Z,8.80
2022-10-20T19:35:56.620Z,13.18
2022-10-20T19:38:24.372Z,12.73
2022-10-20T19:40:51.771Z,12.48
2022-10-20T19:43:19.471Z,11.70
2022-10-20T19:45:49.163Z,13.20
2022-10-20T19:48:17.271Z,11.73
2022-10-20T19:50:44.753Z,9.63
2022-10-20T19:53:12.269Z,15.73
2022-10-20T19:55:39.773Z,11.48
2022-10-20T19:58:07.259Z,14.80
2022-10-20T20:00:35.108Z,10.77
2022-10-20T20:03:02.595Z,11.27
2022-10-20T20:05:30.316Z,14.52
2022-10-20T20:07:57.739Z,14.38
2022-10-20T20:10:25.088Z,12.65
2022-10-20T20:12:52.561Z,15.18
2022-10-20T20:15:20.287Z,12.15
2022-10-20T20:17:47.671Z,11.85
2022-10-20T20:20:15.017Z,15.25
2022-10-20T20:22:42.706Z,9.57
2022-10-20T20:25:10.312Z,8.93
2022-10-20T20:27:37.879Z,17.15
2022-10-20T20:30:05.703Z,15.20
2022-10-20T20:32:33.483Z,11.07
2022-10-20T20:35:00.839Z,16.55
2022-10-20T20:37:28.535Z,11.65
2022-10-20T20:39:55.992Z,14.25
2022-10-20T20:42:23.539Z,12.48
2022-10-20T20:44:53.162Z,12.20
2022-10-20T20:47:20.862Z,12.75
2022-10-20T20:49:48.339Z,11.05
2022-10-20T20:52:15.711Z,18.10
2022-10-20T20:54:43.087Z,11.52
2022-10-20T20:57:10.401Z,18.55
2022-10-20T20:59:38.087Z,11.77
2022-10-20T21:02:05.837Z,9.88
2022-10-20T21:04:33.366Z,12.27
2022-10-20T21:07:02.451Z,12.82
2022-10-20T21:09:30.867Z,9.52
2022-10-20T21:11:58.364Z,10.68
2022-10-20T21:14:25.833Z,14.63
2022-10-20T21:16:53.465Z,11.48
2022-10-20T21:19:21.092Z,12.10
2022-10-20T21:21:57.601Z,9.90
2022-10-20T21:24:26.454Z,12.57
2022-10-20T21:26:54.289Z,12.85
2022-10-20T21:29:21.948Z,10.88
2022-10-20T21:31:49.387Z,16.10
2022-10-20T21:34:16.988Z,8.00
2022-10-20T21:36:44.508Z,12.88
2022-10-20T21:39:13.634Z,9.25
2022-10-20T21:41:41.977Z,8.30
2022-10-20T21:44:09.711Z,12.82
2022-10-20T21:46:40.005Z,11.60
2022-10-20T21:49:08.620Z,10.82
2022-10-20T21:51:37.423Z,12.32
2022-10-20T21:54:06.411Z,11.77
2022-10-20T21:56:37.856Z,9.15
2022-10-20T21:59:05.916Z,9.93
2022-10-20T22:01:33.612Z,12.50
2022-10-20T22:04:01.172Z,21.00
2022-10-20T22:06:29.135Z,15.93
2022-10-20T22:08:58.242Z,14.57
2022-10-20T22:11:33.605Z,15.32
2022-10-20T22:14:01.497Z,12.43
2022-10-20T22:16:30.382Z,15.43
2022-10-20T22:19:02.270Z,10.85
2022-10-20T22:21:30.232Z,15.50
2022-10-20T22:23:58.140Z,9.27
2022-10-20T22:26:29.454Z,8.57
2022-10-20T22:28:57.970Z,10.82
2022-10-20T22:31:26.054Z,15.65
2022-10-20T22:33:54.174Z,9.10
2022-10-20T22:36:21.566Z,9.57
2022-10-20T22:38:49.139Z,11.98
2022-10-20T22:41:16.564Z,14.70
2022-10-20T22:43:44.080Z,12.93
2022-10-20T22:46:11.424Z,9.82
2022-10-20T22:48:38.839Z,11.00
2022-10-20T22:51:07.763Z,8.52
2022-10-20T22:53:35.717Z,12.73
2022-10-20T22:56:07.883Z,8.50
2022-10-20T22:58:35.614Z,9.65
2022-10-20T23:01:08.066Z,12.25
2022-10-20T23:03:35.736Z,13.02
2022-10-20T23:06:06.700Z,13.35
2022-10-20T23:08:38.156Z,10.10
2022-10-20T23:11:05.605Z,11.70
2022-10-20T23:13:33.371Z,10.90
2022-10-20T23:16:00.993Z,11.23
2022-10-20T23:18:28.480Z,9.15
2022-10-20T23:20:58.186Z,11.00
2022-10-20T23:23:26.516Z,12.07
2022-10-20T23:25:54.000Z,14.15
2022-10-20T23:28:21.753Z,10.00
2022-10-20T23:30:49.129Z,10.70
2022-10-20T23:33:16.791Z,9.65
2022-10-20T23:35:44.537Z,12.00
2022-10-20T23:38:13.615Z,21.90
2022-10-20T23:40:40.981Z,13.80
2022-10-20T23:43:08.650Z,12.93
2022-10-20T23:45:37.759Z,8.95
2022-10-20T23:48:05.593Z,11.43
2022-10-20T23:50:32.854Z,12.43
2022-10-20T23:53:00.323Z,14.88
2022-10-20T23:55:28.044Z,15.02
2022-10-20T23:57:55.566Z,12.95
